createdAt,value
2022-10-05T00:01:34.512Z,5.40
2022-10-05T00:04:28.263Z,4.80
2022-10-05T00:09:33.313Z,4.90
2022-10-05T00:12:20.376Z,4.40
2022-10-05T00:14:53.491Z,4.80
2022-10-05T00:19:54.197Z,4.20
2022-10-05T00:22:30.086Z,4.10
2022-10-05T00:25:01.477Z,3.60
2022-10-05T00:27:37.559Z,4.10
2022-10-05T00:30:27.090Z,3.40
2022-10-05T00:32:59.450Z,4.30
2022-10-05T00:35:29.552Z,4.10
2022-10-05T00:37:57.799Z,4.00
2022-10-05T00:40:50.748Z,4.00
2022-10-05T00:43:52.466Z,3.10
2022-10-05T00:46:30.560Z,3.50
2022-10-05T00:49:27.285Z,3.40
2022-10-05T00:52:29.607Z,3.40
2022-10-05T00:55:32.985Z,2.80
2022-10-05T00:58:19.307Z,3.30
2022-10-05T01:01:25.257Z,3.70
2022-10-05T01:04:40.733Z,2.70
2022-10-05T01:07:35.325Z,3.60
2022-10-05T01:10:24.925Z,3.30
2022-10-05T01:13:04.348Z,2.90
2022-10-05T01:15:54.621Z,3.10
2022-10-05T01:18:48.566Z,2.90
2022-10-05T01:21:28.494Z,3.20
2022-10-05T01:24:29.159Z,3.50
2022-10-05T01:28:01.836Z,3.00
2022-10-05T01:30:43.352Z,3.00
2022-10-05T01:33:48.092Z,2.40
2022-10-05T01:36:51.563Z,2.60
2022-10-05T01:39:34.981Z,2.90
2022-10-05T01:45:25.353Z,3.20
2022-10-05T01:48:13.623Z,3.20
2022-10-05T01:50:54.030Z,2.50
2022-10-05T01:53:49.206Z,2.60
2022-10-05T01:56:50.950Z,2.70
2022-10-05T01:59:27.913Z,3.60
2022-10-05T02:02:09.628Z,2.60
2022-10-05T02:05:04.672Z,3.10
2022-10-05T02:07:46.095Z,3.40
2022-10-05T02:10:29.139Z,3.10
2022-10-05T02:13:38.496Z,3.40
2022-10-05T02:16:16.962Z,3.80
2022-10-05T02:19:08.483Z,3.90
2022-10-05T02:21:38.550Z,2.90
2022-10-05T02:24:20.609Z,3.10
2022-10-05T02:26:52.532Z,3.20
2022-10-05T02:29:26.381Z,3.50
2022-10-05T02:32:02.961Z,4.00
2022-10-05T02:34:40.719Z,3.70
2022-10-05T02:37:42.588Z,4.10
2022-10-05T02:40:44.701Z,3.60
2022-10-05T02:43:31.016Z,3.40
2022-10-05T02:46:37.949Z,3.60
2022-10-05T02:49:34.424Z,3.70
2022-10-05T02:52:45.279Z,3.50
2022-10-05T02:55:26.564Z,3.90
2022-10-05T02:58:23.829Z,3.90
2022-10-05T03:01:49.388Z,3.50
2022-10-05T03:04:38.799Z,3.50
2022-10-05T03:07:46.325Z,3.90
2022-10-05T03:10:37.234Z,3.60
2022-10-05T03:13:54.659Z,3.50
2022-10-05T03:17:02.915Z,4.00
2022-10-05T03:20:14.601Z,3.80
2022-10-05T03:23:05.004Z,5.10
2022-10-05T03:25:54.227Z,3.90
2022-10-05T03:28:45.850Z,3.90
2022-10-05T03:31:38.253Z,3.70
2022-10-05T03:34:53.963Z,3.80
2022-10-05T03:37:39.129Z,4.20
2022-10-05T03:40:22.187Z,5.20
2022-10-05T03:43:02.485Z,4.80
2022-10-05T03:45:46.929Z,4.70
2022-10-05T03:48:28.889Z,5.30
2022-10-05T03:51:24.832Z,5.20
2022-10-05T03:54:30.997Z,4.50
2022-10-05T03:57:10.545Z,4.20
2022-10-05T04:00:16.069Z,3.80
2022-10-05T04:03:08.076Z,3.90
2022-10-05T04:05:47.214Z,4.40
2022-10-05T04:08:43.029Z,3.90
2022-10-05T04:11:42.458Z,4.40
2022-10-05T04:14:16.008Z,4.40
2022-10-05T04:16:49.639Z,4.20
2022-10-05T04:19:41.653Z,4.60
2022-10-05T04:22:32.112Z,4.30
2022-10-05T04:25:32.127Z,4.60
2022-10-05T04:28:35.166Z,5.00
2022-10-05T04:31:10.434Z,5.40
2022-10-05T04:33:38.609Z,5.40
2022-10-05T04:36:22.287Z,5.70
2022-10-05T04:41:40.081Z,7.10
2022-10-05T04:44:23.577Z,8.40
2022-10-05T04:47:06.036Z,8.00
2022-10-05T04:49:52.974Z,8.20
2022-10-05T04:52:37.364Z,8.40
2022-10-05T04:55:52.340Z,8.70
2022-10-05T04:58:50.997Z,8.60
2022-10-05T05:01:25.082Z,9.90
2022-10-05T05:04:24.808Z,10.20
2022-10-05T05:07:37.698Z,9.40
2022-10-05T05:10:35.745Z,9.80
2022-10-05T05:13:50.200Z,8.40
2022-10-05T05:16:39.026Z,8.40
2022-10-05T05:19:38.984Z,8.50
2022-10-05T05:22:36.702Z,7.70
2022-10-05T05:25:52.313Z,6.70
2022-10-05T05:28:42.525Z,6.10
2022-10-05T05:31:28.507Z,6.40
2022-10-05T05:34:41.568Z,6.30
2022-10-05T05:37:39.113Z,6.60
2022-10-05T05:40:10.212Z,5.70
2022-10-05T05:43:23.652Z,5.40
2022-10-05T05:46:17.526Z,5.10
2022-10-05T05:51:24.653Z,4.80
2022-10-05T05:54:18.114Z,4.80
2022-10-05T05:57:19.495Z,5.20
2022-10-05T06:00:38.698Z,4.20
2022-10-05T06:04:08.734Z,4.40
2022-10-05T06:06:43.193Z,4.00
2022-10-05T06:09:42.039Z,4.10
2022-10-05T06:12:28.425Z,4.60
2022-10-05T06:15:24.707Z,4.50
2022-10-05T06:18:00.187Z,4.40
2022-10-05T06:21:00.945Z,4.80
2022-10-05T06:23:48.984Z,4.90
2022-10-05T06:27:00.766Z,4.90
2022-10-05T06:30:07.327Z,5.60
2022-10-05T06:33:06.312Z,4.10
2022-10-05T06:35:55.513Z,4.80
2022-10-05T06:38:29.706Z,3.80
2022-10-05T06:41:13.038Z,4.20
2022-10-05T06:44:10.735Z,3.80
2022-10-05T06:47:23.327Z,4.40
2022-10-05T06:50:36.788Z,3.30
2022-10-05T06:54:10.917Z,4.60
2022-10-05T06:56:59.588Z,4.30
2022-10-05T07:00:04.057Z,7.10
2022-10-05T07:02:54.818Z,5.00
2022-10-05T07:06:02.280Z,4.20
2022-10-05T07:09:08.379Z,4.30
2022-10-05T07:12:03.852Z,4.40
2022-10-05T07:14:59.380Z,4.70
2022-10-05T07:18:09.552Z,3.80
2022-10-05T07:21:19.164Z,4.40
2022-10-05T07:24:42.549Z,3.70
2022-10-05T07:27:23.871Z,3.80
2022-10-05T07:30:08.019Z,4.20
2022-10-05T07:33:12.313Z,9.40
2022-10-05T07:36:50.862Z,6.40
2022-10-05T07:39:55.414Z,3.60
2022-10-05T07:42:51.738Z,3.50
2022-10-05T07:45:39.567Z,3.40
2022-10-05T07:48:33.163Z,3.70
2022-10-05T07:51:36.500Z,4.10
2022-10-05T07:54:17.009Z,3.80
2022-10-05T07:56:53.872Z,3.80
2022-10-05T07:59:35.740Z,3.80
2022-10-05T08:02:47.273Z,4.00
2022-10-05T08:05:28.485Z,4.10
2022-10-05T08:08:58.936Z,4.00
2022-10-05T08:12:25.487Z,4.30
2022-10-05T08:15:15.505Z,4.90
2022-10-05T08:18:05.916Z,5.30
2022-10-05T08:20:49.428Z,4.80
2022-10-05T08:23:50.779Z,4.90
2022-10-05T08:26:28.664Z,4.20
2022-10-05T08:29:13.943Z,4.70
2022-10-05T08:31:48.735Z,5.20
2022-10-05T08:34:26.000Z,5.40
2022-10-05T08:37:21.304Z,8.40
2022-10-05T08:40:00.813Z,8.10
2022-10-05T08:43:09.493Z,7.00
2022-10-05T08:46:01.280Z,6.40
2022-10-05T08:48:57.157Z,5.70
2022-10-05T08:51:37.542Z,6.40
2022-10-05T08:54:14.458Z,4.80
2022-10-05T08:57:38.996Z,6.50
2022-10-05T09:00:16.695Z,5.80
2022-10-05T09:03:45.707Z,6.50
2022-10-05T09:06:51.344Z,5.00
2022-10-05T09:09:49.971Z,4.40
2022-10-05T09:12:18.213Z,4.30
2022-10-05T09:15:01.510Z,4.40
2022-10-05T09:18:28.425Z,3.90
2022-10-05T09:21:14.806Z,6.00
2022-10-05T09:23:45.165Z,6.10
2022-10-05T09:26:45.638Z,5.20
2022-10-05T09:29:47.134Z,5.70
2022-10-05T09:33:06.207Z,5.40
2022-10-05T09:36:02.063Z,5.50
2022-10-05T09:39:09.503Z,6.10
2022-10-05T09:42:04.435Z,5.60
2022-10-05T09:45:03.465Z,4.90
2022-10-05T09:48:14.683Z,4.10
2022-10-05T09:51:02.483Z,4.30
2022-10-05T09:53:58.367Z,4.30
2022-10-05T09:57:18.920Z,3.90
2022-10-05T10:00:21.738Z,4.30
2022-10-05T10:03:45.852Z,4.10
2022-10-05T10:06:22.733Z,6.20
2022-10-05T10:09:35.174Z,7.30
2022-10-05T10:12:41.424Z,4.30
2022-10-05T10:15:50.162Z,4.20
2022-10-05T10:18:59.541Z,4.30
2022-10-05T10:22:14.664Z,3.20
2022-10-05T10:24:57.848Z,3.30
2022-10-05T10:27:59.131Z,2.70
2022-10-05T10:31:00.587Z,2.70
2022-10-05T10:33:52.617Z,2.60
2022-10-05T10:37:13.506Z,3.00
2022-10-05T10:40:43.060Z,3.50
2022-10-05T10:43:44.946Z,3.60
2022-10-05T10:47:05.956Z,3.30
2022-10-05T10:50:06.298Z,2.60
2022-10-05T10:53:21.304Z,3.10
2022-10-05T10:56:14.085Z,2.80
2022-10-05T10:58:54.048Z,2.70
2022-10-05T11:01:31.272Z,3.00
2022-10-05T11:04:14.024Z,2.60
2022-10-05T11:06:51.026Z,2.60
2022-10-05T11:09:34.682Z,2.20
2022-10-05T11:12:34.363Z,2.20
2022-10-05T11:15:51.656Z,1.70
2022-10-05T11:18:47.243Z,2.40
2022-10-05T11:21:31.840Z,2.80
2022-10-05T11:24:46.741Z,4.20
2022-10-05T11:27:26.487Z,2.30
2022-10-05T11:30:41.547Z,2.40
2022-10-05T11:34:03.349Z,2.20
2022-10-05T11:37:44.342Z,2.70
2022-10-05T11:40:36.978Z,2.30
2022-10-05T11:43:34.419Z,2.70
2022-10-05T11:46:24.703Z,2.40
2022-10-05T11:49:35.671Z,2.00
2022-10-05T11:52:26.352Z,2.20
2022-10-05T11:55:21.484Z,1.90
2022-10-05T11:58:07.626Z,2.20
2022-10-05T12:00:41.611Z,2.50
2022-10-05T12:03:52.003Z,2.00
2022-10-05T12:06:21.968Z,3.00
2022-10-05T12:09:18.237Z,3.90
2022-10-05T12:12:21.023Z,3.60
2022-10-05T12:15:17.468Z,3.10
2022-10-05T12:17:55.491Z,1.90
2022-10-05T12:20:38.344Z,2.30
2022-10-05T12:23:37.558Z,2.40
2022-10-05T12:26:14.998Z,2.40
2022-10-05T12:29:13.650Z,1.90
2022-10-05T12:32:08.771Z,1.70
2022-10-05T12:35:46.666Z,3.10
2022-10-05T12:38:37.263Z,2.20
2022-10-05T12:42:01.025Z,2.90
2022-10-05T12:44:55.618Z,4.30
2022-10-05T12:47:53.476Z,2.20
2022-10-05T12:50:38.367Z,3.30
2022-10-05T12:53:56.981Z,2.80
2022-10-05T12:56:46.892Z,2.30
2022-10-05T12:59:33.069Z,3.00
2022-10-05T13:02:44.467Z,2.40
2022-10-05T13:05:26.599Z,1.80
2022-10-05T13:08:09.534Z,1.90
2022-10-05T13:11:21.041Z,2.50
2022-10-05T13:14:13.972Z,2.10
2022-10-05T13:16:55.992Z,1.70
2022-10-05T13:19:44.591Z,1.70
2022-10-05T13:22:43.511Z,2.20
2022-10-05T13:25:14.343Z,2.00
2022-10-05T13:28:13.194Z,2.10
2022-10-05T13:30:51.896Z,2.00
2022-10-05T13:33:33.282Z,1.50
2022-10-05T13:36:15.334Z,2.30
2022-10-05T13:39:03.861Z,1.80
2022-10-05T13:42:15.696Z,1.60
2022-10-05T13:45:13.339Z,1.40
2022-10-05T13:47:53.020Z,1.60
2022-10-05T13:50:33.439Z,2.00
2022-10-05T13:53:29.714Z,2.30
2022-10-05T13:56:24.616Z,1.70
2022-10-05T13:59:36.422Z,1.80
2022-10-05T14:02:20.298Z,2.10
2022-10-05T14:04:57.635Z,2.70
2022-10-05T14:07:50.387Z,2.00
2022-10-05T14:10:43.652Z,2.50
2022-10-05T14:13:46.812Z,2.10
2022-10-05T14:16:24.004Z,2.50
2022-10-05T14:19:14.385Z,2.30
2022-10-05T14:22:03.156Z,3.40
2022-10-05T14:24:44.560Z,1.70
2022-10-05T14:27:33.312Z,2.40
2022-10-05T14:30:23.826Z,2.00
2022-10-05T14:33:03.902Z,2.00
2022-10-05T14:35:49.266Z,5.20
2022-10-05T14:38:29.943Z,4.90
2022-10-05T14:41:27.744Z,3.10
2022-10-05T14:44:06.113Z,2.30
2022-10-05T14:46:37.254Z,2.00
2022-10-05T14:49:37.488Z,2.10
2022-10-05T14:52:32.633Z,2.00
2022-10-05T14:56:01.557Z,2.80
2022-10-05T14:58:48.040Z,2.40
2022-10-05T15:01:34.019Z,2.50
2022-10-05T15:04:17.055Z,2.50
2022-10-05T15:07:04.200Z,2.40
2022-10-05T15:10:06.555Z,2.30
2022-10-05T15:12:46.934Z,2.40
2022-10-05T15:15:32.986Z,2.20
2022-10-05T15:18:15.056Z,2.40
2022-10-05T15:20:58.690Z,3.30
2022-10-05T15:23:41.166Z,3.40
2022-10-05T15:26:27.413Z,2.70
2022-10-05T15:29:17.792Z,2.30
2022-10-05T15:31:57.797Z,2.90
2022-10-05T15:34:45.102Z,4.70
2022-10-05T15:37:23.807Z,3.10
2022-10-05T15:40:08.495Z,3.00
2022-10-05T15:42:41.611Z,3.00
2022-10-05T15:47:57.372Z,3.70
2022-10-05T15:50:37.733Z,3.60
2022-10-05T15:53:14.948Z,3.40
2022-10-05T15:56:19.530Z,4.10
2022-10-05T15:59:02.296Z,4.20
2022-10-05T16:01:33.953Z,5.20
2022-10-05T16:04:35.798Z,4.20
2022-10-05T16:07:28.525Z,5.80
2022-10-05T16:10:15.561Z,5.00
2022-10-05T16:13:02.488Z,4.60
2022-10-05T16:15:48.751Z,4.00
2022-10-05T16:18:41.444Z,12.80
2022-10-05T16:21:41.531Z,36.00
2022-10-05T16:24:28.937Z,84.80
2022-10-05T16:27:10.509Z,37.60
2022-10-05T16:30:03.191Z,36.30
2022-10-05T16:32:39.433Z,20.10
2022-10-05T16:35:29.315Z,11.10
2022-10-05T16:38:14.617Z,44.10
2022-10-05T16:41:13.174Z,38.20
2022-10-05T16:44:09.206Z,71.50
2022-10-05T16:47:25.105Z,67.20
2022-10-05T16:50:13.579Z,70.50
2022-10-05T16:52:46.980Z,122.50
2022-10-05T16:55:32.414Z,67.40
2022-10-05T16:58:05.006Z,52.90
2022-10-05T17:00:58.121Z,54.60
2022-10-05T17:04:03.475Z,44.00
2022-10-05T17:07:00.592Z,19.40
2022-10-05T17:10:14.651Z,14.20
2022-10-05T17:13:14.218Z,12.80
2022-10-05T17:16:15.068Z,17.90
2022-10-05T17:19:10.099Z,14.70
2022-10-05T17:22:00.610Z,12.20
2022-10-05T17:25:18.404Z,11.80
2022-10-05T17:28:15.183Z,12.70
2022-10-05T17:31:14.191Z,13.30
2022-10-05T17:34:30.688Z,10.90
2022-10-05T17:37:32.039Z,12.00
2022-10-05T17:40:01.875Z,13.80
2022-10-05T17:42:30.005Z,14.60
2022-10-05T17:45:14.579Z,14.20
2022-10-05T17:48:03.829Z,14.10
2022-10-05T17:51:04.367Z,14.30
2022-10-05T17:54:06.417Z,13.20
2022-10-05T17:57:04.602Z,14.40
2022-10-05T18:00:01.744Z,16.50
2022-10-05T18:02:36.654Z,14.70
2022-10-05T18:05:16.218Z,14.20
2022-10-05T18:07:48.221Z,13.90
2022-10-05T18:10:29.037Z,14.50
2022-10-05T18:13:00.064Z,14.80
2022-10-05T18:15:28.360Z,15.70
2022-10-05T18:18:19.602Z,17.00
2022-10-05T18:21:11.721Z,17.00
2022-10-05T18:23:58.532Z,17.10
2022-10-05T18:26:46.737Z,16.50
2022-10-05T18:30:03.344Z,16.90
2022-10-05T18:33:28.216Z,18.00
2022-10-05T18:36:14.236Z,19.70
2022-10-05T18:39:09.806Z,18.60
2022-10-05T18:41:49.485Z,21.00
2022-10-05T18:44:44.332Z,18.20
2022-10-05T18:47:48.210Z,19.90
2022-10-05T18:52:57.040Z,21.80
2022-10-05T18:55:41.198Z,26.40
2022-10-05T18:58:14.322Z,29.50
2022-10-05T19:03:51.269Z,25.80
2022-10-05T19:06:27.046Z,20.40
2022-10-05T19:09:27.415Z,17.00
2022-10-05T19:12:20.812Z,17.20
2022-10-05T19:15:29.688Z,15.30
2022-10-05T19:18:09.044Z,14.90
2022-10-05T19:20:54.117Z,13.80
2022-10-05T19:24:02.466Z,12.70
2022-10-05T19:26:51.761Z,11.60
2022-10-05T19:29:47.392Z,11.50
2022-10-05T19:33:06.901Z,10.10
2022-10-05T19:36:08.558Z,11.00
2022-10-05T19:38:59.602Z,11.30
2022-10-05T19:41:55.856Z,10.30
2022-10-05T19:45:11.900Z,11.40
2022-10-05T19:48:02.453Z,12.90
2022-10-05T19:50:34.532Z,13.80
2022-10-05T19:53:12.775Z,13.60
2022-10-05T19:55:43.845Z,13.30
2022-10-05T19:58:25.356Z,14.60
2022-10-05T20:01:06.856Z,15.40
2022-10-05T20:03:38.078Z,15.20
2022-10-05T20:06:09.108Z,15.90
2022-10-05T20:08:50.022Z,15.40
2022-10-05T20:11:23.433Z,14.50
2022-10-05T20:13:55.134Z,14.10
2022-10-05T20:19:51.078Z,14.80
2022-10-05T20:22:33.196Z,13.80
2022-10-05T20:25:28.906Z,12.50
2022-10-05T20:27:57.947Z,11.60
2022-10-05T20:30:29.158Z,12.90
2022-10-05T20:33:04.651Z,12.40
2022-10-05T20:35:32.878Z,11.60
2022-10-05T20:38:01.173Z,12.10
2022-10-05T20:40:30.629Z,12.50
2022-10-05T20:42:59.030Z,13.90
2022-10-05T20:45:27.185Z,13.20
2022-10-05T20:47:55.396Z,13.70
2022-10-05T20:50:23.483Z,14.50
2022-10-05T20:52:51.570Z,13.50
2022-10-05T20:55:20.862Z,12.90
2022-10-05T20:57:48.980Z,13.10
2022-10-05T21:00:17.222Z,14.10
2022-10-05T21:02:46.900Z,14.40
2022-10-05T21:05:18.343Z,13.80
2022-10-05T21:07:46.839Z,12.90
2022-10-05T21:10:15.067Z,13.90
2022-10-05T21:12:43.802Z,15.20
2022-10-05T21:15:12.685Z,15.20
2022-10-05T21:17:40.820Z,14.30
2022-10-05T21:20:11.193Z,16.00
2022-10-05T21:22:39.289Z,14.90
2022-10-05T21:25:09.121Z,14.50
2022-10-05T21:27:37.296Z,14.30
2022-10-05T21:30:06.225Z,16.20
2022-10-05T21:32:34.489Z,14.50
2022-10-05T21:35:02.707Z,15.30
2022-10-05T21:37:30.815Z,15.40
2022-10-05T21:39:58.949Z,15.20
2022-10-05T21:42:27.146Z,15.80
2022-10-05T21:44:55.236Z,15.00
2022-10-05T21:47:23.409Z,14.40
2022-10-05T21:49:53.095Z,14.60
2022-10-05T21:52:21.916Z,13.80
2022-10-05T21:54:50.056Z,15.10
2022-10-05T21:57:18.722Z,13.60
2022-10-05T21:59:47.509Z,13.70
2022-10-05T22:02:15.623Z,13.90
2022-10-05T22:04:43.727Z,13.80
2022-10-05T22:07:20.640Z,13.30
2022-10-05T22:09:50.684Z,12.80
2022-10-05T22:12:20.085Z,14.80
2022-10-05T22:14:48.848Z,14.00
2022-10-05T22:17:24.901Z,12.90
2022-10-05T22:19:55.668Z,12.70
2022-10-05T22:22:25.505Z,13.00
2022-10-05T22:24:54.275Z,13.20
2022-10-05T22:27:24.771Z,13.20
2022-10-05T22:29:54.418Z,12.80
2022-10-05T22:32:22.507Z,12.50
2022-10-05T22:34:51.106Z,13.30
2022-10-05T22:37:19.205Z,12.70
2022-10-05T22:39:48.384Z,13.10
2022-10-05T22:42:16.615Z,14.10
2022-10-05T22:44:44.757Z,14.40
2022-10-05T22:47:13.385Z,12.80
2022-10-05T22:49:41.457Z,13.80
2022-10-05T22:52:09.576Z,12.10
2022-10-05T22:54:37.665Z,11.40
2022-10-05T22:57:05.820Z,12.10
2022-10-05T22:59:33.969Z,12.60
2022-10-05T23:02:02.132Z,12.30
2022-10-05T23:04:30.973Z,12.00
2022-10-05T23:06:59.132Z,11.90
2022-10-05T23:09:27.279Z,13.20
2022-10-05T23:11:55.473Z,12.00
2022-10-05T23:14:24.034Z,12.30
2022-10-05T23:16:52.161Z,13.70
2022-10-05T23:19:20.857Z,12.80
2022-10-05T23:21:49.389Z,12.30
2022-10-05T23:24:17.474Z,12.90
2022-10-05T23:26:45.589Z,12.20
2022-10-05T23:29:13.777Z,12.30
2022-10-05T23:31:41.893Z,12.50
2022-10-05T23:34:09.997Z,14.70
2022-10-05T23:36:38.127Z,12.40
2022-10-05T23:39:06.275Z,13.70
2022-10-05T23:41:34.556Z,14.90
2022-10-05T23:44:02.693Z,12.40
2022-10-05T23:46:30.837Z,12.50
2022-10-05T23:48:58.924Z,13.10
2022-10-05T23:51:27.121Z,13.00
2022-10-05T23:53:55.266Z,12.90
2022-10-05T23:56:23.400Z,12.20
2022-10-05T23:58:51.539Z,12.40
